Time;durP1;ratioP1;P1;durP2;ratioP2;P2;SDS_P1;SDS_P2;PMS_P1;PMS_P2;Temp;Humidity;BMP_temperature;BMP_pressure;BME280_temperature;BME280_humidity;BME280_pressure;Samples;Min_cycle;Max_cycle;Signal;HPM_P1;HPM_P2
2021/08/10 00:00:09;;;;;;;5.03;2.85;;;15.20;99.90;;;;;;4727306;30;20899;-80
2021/08/10 00:02:38;;;;;;;4.97;2.70;;;15.20;99.90;;;;;;4726027;30;20082;-80
2021/08/10 00:05:08;;;;;;;5.35;3.03;;;15.20;99.90;;;;;;4760445;30;20088;-80
2021/08/10 00:07:35;;;;;;;4.63;3.17;;;15.20;99.90;;;;;;4760769;30;20078;-80
2021/08/10 00:10:01;;;;;;;4.22;2.97;;;15.20;99.90;;;;;;4762073;30;20055;-81
2021/08/10 00:12:28;;;;;;;4.90;2.80;;;15.20;99.90;;;;;;4729862;30;21357;-81
2021/08/10 00:14:54;;;;;;;3.40;2.47;;;15.20;99.90;;;;;;4747129;30;20047;-81
2021/08/10 00:17:21;;;;;;;5.43;2.45;;;15.10;99.90;;;;;;4744612;30;20048;-81
2021/08/10 00:19:47;;;;;;;3.65;2.20;;;15.10;99.90;;;;;;4731460;30;20051;-81
2021/08/10 00:22:13;;;;;;;4.10;2.58;;;15.20;99.90;;;;;;4731428;30;20044;-81
2021/08/10 00:24:40;;;;;;;4.03;2.80;;;15.10;99.90;;;;;;4762159;30;20052;-81
2021/08/10 00:27:06;;;;;;;2.72;2.10;;;15.10;99.90;;;;;;4761655;30;20469;-81
2021/08/10 00:29:33;;;;;;;4.15;2.78;;;15.10;99.90;;;;;;4749234;30;20047;-80
2021/08/10 00:31:59;;;;;;;3.67;2.28;;;15.10;99.90;;;;;;4761044;30;20036;-81
2021/08/10 00:34:26;;;;;;;3.92;2.53;;;15.10;99.90;;;;;;4734473;30;20070;-81
2021/08/10 00:37:05;;;;;;;3.22;2.70;;;15.10;99.90;;;;;;4744170;30;20052;-81
2021/08/10 00:39:32;;;;;;;3.83;2.55;;;15.00;99.90;;;;;;4732838;30;20531;-81
2021/08/10 00:41:58;;;;;;;3.47;2.67;;;15.00;99.90;;;;;;4762536;30;20054;-80
2021/08/10 00:44:25;;;;;;;8.63;2.67;;;15.10;99.90;;;;;;4718061;30;20059;-81
2021/08/10 00:46:53;;;;;;;3.30;2.38;;;15.00;99.90;;;;;;4763082;30;20077;-81
2021/08/10 00:49:24;;;;;;;5.20;3.03;;;15.00;99.90;;;;;;4719532;30;20059;-80
2021/08/10 00:51:52;;;;;;;3.50;1.88;;;15.00;99.90;;;;;;4746419;30;20043;-80
2021/08/10 00:54:19;;;;;;;4.13;2.45;;;15.00;99.90;;;;;;4717666;30;20052;-80
2021/08/10 00:56:51;;;;;;;4.40;2.75;;;15.00;99.90;;;;;;4735962;30;20051;-80
2021/08/10 00:59:24;;;;;;;3.22;2.20;;;14.90;99.90;;;;;;4761883;30;20039;-80
2021/08/10 01:01:56;;;;;;;4.78;2.17;;;14.90;99.90;;;;;;4748734;30;20496;-80
2021/08/10 01:04:24;;;;;;;4.07;2.45;;;15.00;99.90;;;;;;4747664;30;20071;-79
2021/08/10 01:07:11;;;;;;;3.28;2.55;;;14.90;99.90;;;;;;4761011;30;20105;-78
2021/08/10 01:10:07;;;;;;;3.10;2.20;;;15.00;99.90;;;;;;4748000;30;20052;-79
2021/08/10 01:12:45;;;;;;;2.90;2.10;;;15.00;99.90;;;;;;4728820;30;20655;-79
2021/08/10 01:15:17;;;;;;;5.05;2.35;;;15.00;99.90;;;;;;4762620;30;20048;-79
2021/08/10 01:18:15;;;;;;;4.03;2.35;;;15.00;99.90;;;;;;4746149;30;20047;-79
2021/08/10 01:21:19;;;;;;;3.45;2.00;;;15.00;99.90;;;;;;4744072;30;20075;-79
2021/08/10 01:24:22;;;;;;;3.75;2.25;;;15.00;99.90;;;;;;4760656;30;20051;-79
2021/08/10 01:27:12;;;;;;;5.82;2.00;;;14.90;99.90;;;;;;4763166;30;20044;-79
2021/08/10 01:30:00;;;;;;;5.13;2.55;;;14.90;99.90;;;;;;4762633;30;20043;-79
2021/08/10 01:32:29;;;;;;;2.53;2.20;;;14.90;99.90;;;;;;4743167;30;20056;-79
2021/08/10 01:34:58;;;;;;;6.07;2.47;;;14.90;99.90;;;;;;4762188;30;20055;-79
2021/08/10 01:37:27;;;;;;;3.92;2.47;;;14.90;99.90;;;;;;4731419;30;20136;-78
2021/08/10 01:40:09;;;;;;;4.45;2.70;;;14.80;99.90;;;;;;4747315;30;20063;-79
2021/08/10 01:42:48;;;;;;;4.45;2.50;;;14.80;99.90;;;;;;4746550;30;20048;-79
2021/08/10 01:45:16;;;;;;;5.03;2.78;;;14.90;99.90;;;;;;4746108;30;20048;-79
2021/08/10 01:47:46;;;;;;;5.20;2.78;;;14.80;99.90;;;;;;4733649;30;20781;-79
2021/08/10 01:50:16;;;;;;;;;;;14.80;99.90;;;;;;4747525;30;20063;-79
2021/08/10 01:52:51;;;;;;;5.55;2.97;;;14.80;99.90;;;;;;4759592;30;19928;-79
2021/08/10 01:55:20;;;;;;;9.95;4.35;;;14.80;99.90;;;;;;4747924;30;20054;-79
2021/08/10 01:57:50;;;;;;;5.00;3.90;;;14.80;99.90;;;;;;4757552;30;20043;-79
2021/08/10 02:00:18;;;;;;;5.57;3.53;;;14.80;99.90;;;;;;4748504;30;20309;-79
2021/08/10 02:02:53;;;;;;;6.43;3.38;;;14.90;99.90;;;;;;4732016;30;20047;-79
2021/08/10 02:05:45;;;;;;;5.38;3.35;;;14.90;99.90;;;;;;4759583;30;20043;-79
2021/08/10 02:08:19;;;;;;;4.72;2.85;;;14.90;99.90;;;;;;4748409;30;20400;-79
2021/08/10 02:10:46;;;;;;;5.40;2.70;;;15.00;99.90;;;;;;4759553;30;20649;-79
2021/08/10 02:13:14;;;;;;;4.22;3.38;;;15.00;99.90;;;;;;4717315;30;20059;-79
2021/08/10 02:15:46;;;;;;;4.93;3.17;;;15.10;99.90;;;;;;4717520;30;20059;-79
2021/08/10 02:18:13;;;;;;;4.63;3.08;;;15.10;99.90;;;;;;4747314;30;20052;-79
2021/08/10 02:20:57;;;;;;;6.18;2.78;;;15.10;99.90;;;;;;4740650;30;20044;-78
2021/08/10 02:23:25;;;;;;;4.45;2.80;;;15.10;99.90;;;;;;4758304;30;20048;-79
2021/08/10 02:25:53;;;;;;;5.80;3.10;;;15.10;99.90;;;;;;4715816;30;20063;-78
2021/08/10 02:28:21;;;;;;;3.83;2.50;;;15.10;99.90;;;;;;4743066;30;20062;-78
2021/08/10 02:30:53;;;;;;;5.80;2.50;;;15.10;99.90;;;;;;4731289;30;20568;-79
2021/08/10 02:33:25;;;;;;;7.55;3.75;;;15.10;99.90;;;;;;4727812;30;20051;-78
2021/08/10 02:35:55;;;;;;;4.22;2.92;;;15.10;99.90;;;;;;4737194;30;20051;-78
2021/08/10 02:38:25;;;;;;;5.20;2.40;;;15.10;99.90;;;;;;4736504;30;20381;-79
2021/08/10 02:40:57;;;;;;;4.25;2.60;;;15.10;99.90;;;;;;4729002;30;20066;-78
2021/08/10 02:43:28;;;;;;;4.35;3.25;;;15.10;99.90;;;;;;4744047;30;20040;-78
2021/08/10 02:45:55;;;;;;;4.00;2.78;;;15.10;99.90;;;;;;4745734;30;20055;-79
2021/08/10 02:48:22;;;;;;;6.75;3.05;;;15.00;99.90;;;;;;4742301;30;20066;-78
2021/08/10 02:50:50;;;;;;;6.13;3.63;;;15.00;99.90;;;;;;4728832;30;20052;-78
2021/08/10 02:53:18;;;;;;;4.82;3.20;;;15.00;99.90;;;;;;4723898;30;20052;-78
2021/08/10 02:55:54;;;;;;;5.50;2.80;;;15.00;99.90;;;;;;4726619;30;20420;-78
2021/08/10 02:58:25;;;;;;;5.47;2.75;;;15.00;99.90;;;;;;4742580;30;20050;-78
2021/08/10 03:01:06;;;;;;;4.00;2.75;;;15.00;99.90;;;;;;4741237;30;20057;-78
2021/08/10 03:03:35;;;;;;;3.90;2.75;;;15.00;99.90;;;;;;4757695;30;20058;-79
2021/08/10 03:06:07;;;;;;;6.07;3.20;;;14.90;99.90;;;;;;4743016;30;20051;-79
2021/08/10 03:08:43;;;;;;;5.40;3.17;;;14.90;99.90;;;;;;4745799;30;20059;-78
2021/08/10 03:11:12;;;;;;;6.88;2.63;;;14.90;99.90;;;;;;4745715;30;20416;-79
2021/08/10 03:13:40;;;;;;;7.75;2.83;;;14.90;99.90;;;;;;4741631;30;20052;-79
2021/08/10 03:16:08;;;;;;;6.03;2.90;;;14.90;99.90;;;;;;4758510;30;20039;-79
2021/08/10 03:18:38;;;;;;;7.03;4.85;;;14.90;99.90;;;;;;4713708;30;20588;-78
2021/08/10 03:21:08;;;;;;;8.48;5.20;;;14.80;99.90;;;;;;4757842;30;20051;-79
2021/08/10 03:23:39;;;;;;;7.03;4.65;;;14.80;99.90;;;;;;4759109;30;20160;-79
2021/08/10 03:26:08;;;;;;;8.75;4.00;;;14.80;99.90;;;;;;4741447;30;20055;-79
2021/08/10 03:28:41;;;;;;;6.10;3.30;;;14.80;99.90;;;;;;4759904;30;20048;-79
2021/08/10 03:31:10;;;;;;;5.88;3.78;;;14.80;99.90;;;;;;4716624;30;20062;-78
2021/08/10 03:33:38;;;;;;;6.68;3.50;;;14.80;99.90;;;;;;4731405;30;20056;-78
2021/08/10 03:36:05;;;;;;;6.32;3.60;;;14.80;99.90;;;;;;4714899;30;20059;-78
2021/08/10 03:38:36;;;;;;;5.22;3.70;;;14.70;99.90;;;;;;4715701;30;20058;-78
2021/08/10 03:41:05;;;;;;;5.68;3.42;;;14.70;99.90;;;;;;4715886;30;20059;-79
2021/08/10 03:43:35;;;;;;;8.20;4.20;;;14.70;99.90;;;;;;4745293;30;20044;-79
2021/08/10 03:46:02;;;;;;;4.45;3.67;;;14.70;99.90;;;;;;4731554;30;20500;-78
2021/08/10 03:48:37;;;;;;;7.30;4.93;;;14.70;99.90;;;;;;4731962;30;20535;-78
2021/08/10 03:51:04;;;;;;;7.25;4.00;;;14.70;99.90;;;;;;4740949;30;20504;-78
2021/08/10 03:53:31;;;;;;;6.57;3.67;;;14.70;99.90;;;;;;4729961;30;20052;-78
2021/08/10 03:55:59;;;;;;;8.15;3.50;;;14.70;99.90;;;;;;4747096;30;20039;-79
2021/08/10 03:58:35;;;;;;;5.45;3.47;;;14.70;99.90;;;;;;4747247;30;20048;-78
2021/08/10 04:01:04;;;;;;;5.82;3.10;;;14.70;99.90;;;;;;4747756;30;20048;-79
2021/08/10 04:03:32;;;;;;;9.95;4.15;;;14.70;99.90;;;;;;4762086;30;20081;-79
2021/08/10 04:06:00;;;;;;;5.15;3.28;;;14.70;99.90;;;;;;4760216;30;20364;-79
2021/08/10 04:08:29;;;;;;;5.28;3.38;;;14.70;99.90;;;;;;4761003;30;20385;-79
2021/08/10 04:10:57;;;;;;;7.00;3.17;;;14.70;99.90;;;;;;4762451;30;20046;-79
2021/08/10 04:13:29;;;;;;;5.75;3.38;;;14.60;99.90;;;;;;4729549;30;20059;-79
2021/08/10 04:15:56;;;;;;;6.00;3.13;;;14.60;99.90;;;;;;4762039;30;20044;-79
2021/08/10 04:18:24;;;;;;;4.90;3.45;;;14.60;99.90;;;;;;4743973;30;20059;-80
2021/08/10 04:20:53;;;;;;;4.50;2.90;;;14.60;99.90;;;;;;4754916;30;20062;-80
2021/08/10 04:23:21;;;;;;;10.80;3.03;;;14.50;99.90;;;;;;4760796;30;20485;-79
2021/08/10 04:25:48;;;;;;;5.60;3.28;;;14.50;99.90;;;;;;4747702;30;20060;-80
2021/08/10 04:28:16;;;;;;;8.30;3.47;;;14.50;99.90;;;;;;4756954;30;20056;-80
2021/08/10 04:30:46;;;;;;;8.23;3.17;;;14.50;99.90;;;;;;4731755;30;20516;-79
2021/08/10 04:33:15;;;;;;;6.63;4.80;;;14.50;99.90;;;;;;4745761;30;20048;-79
2021/08/10 04:35:42;;;;;;;7.90;4.68;;;14.50;99.90;;;;;;4747313;30;20051;-79
2021/08/10 04:38:09;;;;;;;7.57;4.72;;;14.50;99.90;;;;;;4760837;30;20420;-79
2021/08/10 04:40:38;;;;;;;8.88;5.75;;;14.50;99.90;;;;;;4746216;30;20464;-79
2021/08/10 04:43:10;;;;;;;;;;;14.50;99.90;;;;;;4761910;30;20036;-79
2021/08/10 04:45:41;;;;;;;5.88;3.55;;;14.60;99.90;;;;;;4762414;30;19922;-79
2021/08/10 04:48:08;;;;;;;5.88;2.97;;;14.50;99.90;;;;;;4744682;30;20048;-80
2021/08/10 04:50:36;;;;;;;9.55;4.30;;;14.50;99.90;;;;;;4732920;30;20056;-79
2021/08/10 04:53:03;;;;;;;6.00;3.03;;;14.50;99.90;;;;;;4757728;30;20039;-79
2021/08/10 04:55:29;;;;;;;4.88;3.08;;;14.60;99.90;;;;;;4746000;30;20040;-79
2021/08/10 04:57:56;;;;;;;5.45;2.67;;;14.50;99.90;;;;;;4746829;30;20055;-79
2021/08/10 05:00:24;;;;;;;5.13;2.75;;;14.50;99.90;;;;;;4719100;30;20373;-79
2021/08/10 05:02:50;;;;;;;5.13;2.63;;;14.50;99.90;;;;;;4761604;30;20050;-79
2021/08/10 05:05:17;;;;;;;6.05;2.70;;;14.60;99.90;;;;;;4734601;30;20059;-79
2021/08/10 05:07:46;;;;;;;5.57;2.30;;;14.60;99.90;;;;;;4718188;30;20074;-79
2021/08/10 05:10:15;;;;;;;6.75;3.17;;;14.70;99.90;;;;;;4718717;30;20056;-79
2021/08/10 05:12:42;;;;;;;4.45;2.55;;;14.80;99.90;;;;;;4729519;30;20098;-79
2021/08/10 05:15:12;;;;;;;5.78;2.28;;;14.80;99.90;;;;;;4747626;30;20036;-79
2021/08/10 05:17:39;;;;;;;5.38;2.55;;;14.90;99.90;;;;;;4748354;30;20405;-79
2021/08/10 05:20:08;;;;;;;7.47;3.08;;;14.90;99.90;;;;;;4748248;30;20063;-78
2021/08/10 05:22:40;;;;;;;5.18;2.50;;;15.00;99.90;;;;;;4758402;30;20039;-79
2021/08/10 05:25:08;;;;;;;5.13;2.60;;;15.00;99.90;;;;;;4748079;30;20048;-79
2021/08/10 05:27:36;;;;;;;4.60;2.30;;;15.00;99.90;;;;;;4760702;30;20031;-79
2021/08/10 05:30:04;;;;;;;5.35;2.83;;;15.00;99.90;;;;;;4746217;30;20048;-79
2021/08/10 05:32:31;;;;;;;6.63;4.40;;;15.00;99.90;;;;;;4744719;30;20044;-79
2021/08/10 05:34:58;;;;;;;9.57;3.75;;;15.00;99.90;;;;;;4719995;30;20527;-79
2021/08/10 05:37:27;;;;;;;7.70;3.75;;;15.00;99.90;;;;;;4740153;30;20059;-79
2021/08/10 05:39:54;;;;;;;5.05;2.60;;;15.00;99.90;;;;;;4744665;30;20476;-79
2021/08/10 05:42:20;;;;;;;5.53;2.78;;;15.00;99.90;;;;;;4774907;30;20078;-78
2021/08/10 05:44:47;;;;;;;5.75;3.03;;;15.00;99.90;;;;;;4775522;30;20043;-79
2021/08/10 05:47:14;;;;;;;3.63;2.78;;;15.10;99.90;;;;;;4731286;30;20082;-78
2021/08/10 05:49:42;;;;;;;6.70;3.15;;;15.10;99.90;;;;;;4741830;30;20056;-79
2021/08/10 05:52:09;;;;;;;3.50;2.42;;;15.20;99.90;;;;;;4721457;30;20059;-80
2021/08/10 05:54:38;;;;;;;4.88;2.40;;;15.40;99.90;;;;;;4746445;30;20064;-80
2021/08/10 05:57:04;;;;;;;3.55;2.10;;;15.50;99.90;;;;;;4750432;30;20035;-80
2021/08/10 05:59:31;;;;;;;4.20;2.90;;;15.60;99.90;;;;;;4740576;30;20044;-80
2021/08/10 06:02:02;;;;;;;5.65;2.78;;;15.80;99.90;;;;;;4749476;30;20077;-80
2021/08/10 06:04:29;;;;;;;4.70;2.67;;;15.90;99.90;;;;;;4752109;30;20583;-80
2021/08/10 06:06:57;;;;;;;6.97;3.13;;;16.00;99.90;;;;;;4729153;30;20051;-80
2021/08/10 06:09:25;;;;;;;6.28;3.45;;;16.10;99.90;;;;;;4716334;30;20078;-80
2021/08/10 06:11:52;;;;;;;7.65;4.05;;;16.20;99.90;;;;;;4716595;30;20100;-80
2021/08/10 06:14:19;;;;;;;5.03;3.17;;;16.20;99.90;;;;;;4713765;30;20044;-82
2021/08/10 06:16:47;;;;;;;8.15;3.47;;;16.30;99.90;;;;;;4731385;30;20460;-79
2021/08/10 06:19:16;;;;;;;8.07;3.25;;;16.20;99.90;;;;;;4744510;30;20046;-80
2021/08/10 06:21:43;;;;;;;6.30;2.88;;;16.20;99.90;;;;;;4740040;30;20048;-77
2021/08/10 06:24:10;;;;;;;3.35;2.35;;;16.30;99.90;;;;;;4737785;30;20052;-78
2021/08/10 06:26:39;;;;;;;9.05;3.03;;;16.50;99.90;;;;;;4728835;30;20051;-79
2021/08/10 06:29:06;;;;;;;5.50;3.47;;;16.60;99.90;;;;;;4725713;30;20055;-79
2021/08/10 06:31:32;;;;;;;7.47;4.53;;;16.70;99.90;;;;;;4757675;30;20052;-78
2021/08/10 06:33:59;;;;;;;7.57;3.83;;;16.80;99.90;;;;;;4724954;30;20058;-78
2021/08/10 06:36:27;;;;;;;6.93;3.38;;;16.90;99.90;;;;;;4741086;30;20048;-78
2021/08/10 06:38:53;;;;;;;8.35;3.13;;;17.20;99.90;;;;;;4755460;30;20063;-78
2021/08/10 06:41:22;;;;;;;5.50;3.88;;;17.40;99.90;;;;;;4722563;30;20063;-78
2021/08/10 06:44:05;;;;;;;7.47;3.42;;;17.50;99.90;;;;;;4754388;30;20047;-78
2021/08/10 06:46:36;;;;;;;8.98;4.90;;;17.50;99.90;;;;;;4743008;30;20512;-78
2021/08/10 06:49:08;;;;;;;6.57;4.15;;;17.50;99.90;;;;;;4714320;30;20626;-77
2021/08/10 06:51:36;;;;;;;8.27;4.80;;;17.40;99.90;;;;;;4753236;30;20056;-78
2021/08/10 06:54:03;;;;;;;5.65;4.05;;;17.40;99.90;;;;;;4735253;30;20043;-78
2021/08/10 06:56:30;;;;;;;5.80;3.40;;;17.40;99.90;;;;;;4719117;30;20055;-78
2021/08/10 06:58:59;;;;;;;10.05;5.35;;;17.40;99.90;;;;;;4719820;30;20051;-77
2021/08/10 07:01:29;;;;;;;7.63;4.78;;;17.40;99.90;;;;;;4735184;30;20388;-77
2021/08/10 07:03:56;;;;;;;8.20;5.50;;;17.40;99.90;;;;;;4734140;30;20048;-78
2021/08/10 07:06:23;;;;;;;9.60;6.22;;;17.50;99.90;;;;;;4739963;30;20055;-79
2021/08/10 07:08:54;;;;;;;5.82;3.97;;;17.50;99.90;;;;;;4735913;30;20493;-78
2021/08/10 07:11:23;;;;;;;7.90;4.72;;;17.50;99.90;;;;;;4768275;29;20055;-78
2021/08/10 07:14:03;;;;;;;7.18;4.47;;;17.50;99.90;;;;;;5115605;27;1298008;-77
2021/08/10 07:16:34;;;;;;;4.88;3.97;;;17.50;99.90;;;;;;5109072;27;20038;-76
2021/08/10 07:19:06;;;;;;;7.90;5.13;;;17.70;99.90;;;;;;5106457;27;20445;-76
2021/08/10 07:21:34;;;;;;;7.30;4.47;;;17.80;99.90;;;;;;5123662;27;20050;-76
2021/08/10 07:24:06;;;;;;;7.38;4.93;;;18.00;99.90;;;;;;5110146;27;20050;-76
2021/08/10 07:26:36;;;;;;;5.55;3.65;;;18.10;99.90;;;;;;5092672;27;20041;-78
2021/08/10 07:29:03;;;;;;;6.90;4.30;;;18.30;99.90;;;;;;5089480;27;20486;-79
2021/08/10 07:31:31;;;;;;;6.53;4.05;;;18.50;99.90;;;;;;5123001;27;20038;-78
2021/08/10 07:34:03;;;;;;;4.75;4.20;;;18.60;99.90;;;;;;5100796;28;20039;-77
2021/08/10 07:36:33;;;;;;;7.60;5.07;;;18.60;99.90;;;;;;5085411;28;20875;-79
2021/08/10 07:39:00;;;;;;;8.13;5.40;;;18.70;99.90;;;;;;5062772;27;20038;-79
2021/08/10 07:41:28;;;;;;;8.18;4.93;;;18.70;99.90;;;;;;5087617;28;20043;-79
2021/08/10 07:43:55;;;;;;;9.40;5.03;;;18.60;99.90;;;;;;5072535;27;20051;-83
2021/08/10 07:46:22;;;;;;;7.95;4.80;;;18.50;99.90;;;;;;5106787;28;20405;-80
2021/08/10 07:48:51;;;;;;;7.60;5.47;;;18.40;99.90;;;;;;5055744;27;20054;-79
2021/08/10 07:51:19;;;;;;;7.97;5.53;;;18.40;99.90;;;;;;5072086;27;20039;-79
2021/08/10 07:53:46;;;;;;;10.18;5.90;;;18.50;99.90;;;;;;5103235;28;20043;-77
2021/08/10 07:56:16;;;;;;;6.93;3.97;;;18.70;99.90;;;;;;5087490;27;20035;-77
2021/08/10 07:58:45;;;;;;;5.95;3.78;;;18.80;99.90;;;;;;5074013;27;20055;-77
2021/08/10 08:01:12;;;;;;;10.55;4.15;;;18.80;99.90;;;;;;5084883;27;20031;-79
2021/08/10 08:03:39;;;;;;;9.00;3.05;;;18.80;99.90;;;;;;5072819;27;20046;-79
2021/08/10 08:06:06;;;;;;;8.10;4.15;;;18.80;99.90;;;;;;5077013;27;20038;-79
2021/08/10 08:08:38;;;;;;;7.57;4.30;;;18.70;99.90;;;;;;5086036;28;20039;-78
2021/08/10 08:11:04;;;;;;;6.22;3.38;;;18.60;99.90;;;;;;5100069;27;20027;-79
2021/08/10 08:13:32;;;;;;;5.90;3.00;;;18.80;99.90;;;;;;5088453;27;20043;-82
2021/08/10 08:16:00;;;;;;;5.03;3.72;;;18.90;99.90;;;;;;5073425;27;20043;-79
2021/08/10 08:18:28;;;;;;;5.30;3.35;;;19.00;99.90;;;;;;5071134;27;20054;-79
2021/08/10 08:20:55;;;;;;;7.50;3.83;;;19.30;99.90;;;;;;5090323;27;20049;-82
2021/08/10 08:23:27;;;;;;;6.72;3.08;;;19.50;99.90;;;;;;5084662;28;21488;-79
2021/08/10 08:26:06;;;;;;;5.82;2.85;;;19.60;99.90;;;;;;5041367;28;20415;-79
2021/08/10 08:28:35;;;;;;;5.65;3.20;;;19.60;99.90;;;;;;5088469;28;20915;-79
2021/08/10 08:31:02;;;;;;;5.47;3.20;;;19.60;99.90;;;;;;5070196;28;20509;-80
2021/08/10 08:33:31;;;;;;;6.53;2.95;;;19.50;99.90;;;;;;5074040;27;20036;-80
2021/08/10 08:35:57;;;;;;;4.97;2.95;;;19.50;99.90;;;;;;5088057;28;20035;-79
2021/08/10 08:38:24;;;;;;;5.95;3.08;;;19.60;99.90;;;;;;5072798;27;20041;-79
2021/08/10 08:40:50;;;;;;;6.55;3.28;;;19.70;99.90;;;;;;5090902;28;20375;-81
2021/08/10 08:43:20;;;;;;;6.85;3.63;;;19.70;99.90;;;;;;5055687;28;20052;-78
2021/08/10 08:45:46;;;;;;;8.90;3.90;;;19.90;99.90;;;;;;5071581;28;20041;-78
2021/08/10 08:48:16;;;;;;;7.47;2.75;;;20.00;99.90;;;;;;5055172;28;20047;-78
2021/08/10 08:50:45;;;;;;;6.90;2.60;;;20.20;99.90;;;;;;5070485;28;20881;-78
2021/08/10 08:53:14;;;;;;;3.80;1.70;;;20.30;99.90;;;;;;5086909;28;20044;-78
2021/08/10 08:55:45;;;;;;;5.97;3.13;;;20.40;99.90;;;;;;5080215;28;20031;-78
2021/08/10 08:58:14;;;;;;;4.70;2.13;;;20.50;99.90;;;;;;5053797;28;20485;-78
2021/08/10 09:00:40;;;;;;;3.83;2.00;;;20.80;99.90;;;;;;5071065;28;20036;-79
2021/08/10 09:03:07;;;;;;;5.93;2.72;;;21.00;99.90;;;;;;5072343;28;20425;-79
2021/08/10 09:05:39;;;;;;;4.40;2.08;;;21.30;99.90;;;;;;5053520;28;20070;-79
2021/08/10 09:08:33;;;;;;;5.50;1.73;;;21.50;99.90;;;;;;5071483;28;20055;-78
2021/08/10 09:11:07;;;;;;;3.72;1.95;;;21.60;99.90;;;;;;5070256;27;20046;-78
2021/08/10 09:13:42;;;;;;;2.53;1.70;;;21.60;99.90;;;;;;5052148;28;20044;-78
2021/08/10 09:16:13;;;;;;;3.15;1.67;;;21.50;99.90;;;;;;5067334;28;20050;-78
2021/08/10 09:18:40;;;;;;;4.28;2.42;;;21.40;99.90;;;;;;5074588;28;20032;-77
2021/08/10 09:21:17;;;;;;;3.72;1.50;;;21.20;99.90;;;;;;5043393;28;20059;-77
2021/08/10 09:23:54;;;;;;;2.97;1.83;;;21.10;99.90;;;;;;5084641;28;20024;-77
2021/08/10 09:26:35;;;;;;;6.38;1.77;;;21.10;99.90;;;;;;5067526;28;20478;-78
2021/08/10 09:29:02;;;;;;;3.03;1.30;;;21.00;99.90;;;;;;5047800;28;20063;-77
2021/08/10 09:31:32;;;;;;;3.42;1.38;;;21.00;99.90;;;;;;5050578;28;20028;-77
2021/08/10 09:34:01;;;;;;;2.03;1.13;;;21.00;99.90;;;;;;5084063;28;20481;-79
2021/08/10 09:36:29;;;;;;;3.65;1.40;;;21.00;99.90;;;;;;5066565;28;20032;-78
2021/08/10 09:38:57;;;;;;;3.78;1.60;;;20.80;99.90;;;;;;5045684;28;20051;-80
2021/08/10 09:41:27;;;;;;;4.60;1.40;;;20.70;99.90;;;;;;5067293;28;20044;-80
2021/08/10 09:44:14;;;;;;;2.58;1.05;;;20.70;99.90;;;;;;5084877;28;20055;-77
2021/08/10 09:47:00;;;;;;;4.38;1.38;;;20.70;99.90;;;;;;5063479;28;20036;-78
2021/08/10 09:49:45;;;;;;;3.45;1.10;;;20.70;99.90;;;;;;5036102;28;20058;-79
2021/08/10 09:52:24;;;;;;;4.15;1.60;;;20.80;99.90;;;;;;5065496;28;20036;-78
2021/08/10 09:54:52;;;;;;;3.05;1.63;;;20.80;99.90;;;;;;5050537;28;20050;-79
2021/08/10 09:57:18;;;;;;;3.58;1.38;;;20.80;99.90;;;;;;5034764;28;20044;-77
2021/08/10 09:59:45;;;;;;;2.03;1.10;;;20.80;99.90;;;;;;5026891;28;20502;-78
2021/08/10 10:02:20;;;;;;;3.25;1.60;;;20.80;99.90;;;;;;5068195;28;20031;-78
2021/08/10 10:05:05;;;;;;;4.97;1.48;;;20.60;99.90;;;;;;5082241;28;20047;-78
2021/08/10 10:07:31;;;;;;;4.80;2.03;;;20.50;99.90;;;;;;5066815;28;20036;-78
2021/08/10 10:10:04;;;;;;;5.90;2.22;;;20.40;99.90;;;;;;5050833;28;20461;-79
2021/08/10 10:12:36;;;;;;;3.20;1.95;;;20.30;99.90;;;;;;5065626;28;20052;-79
2021/08/10 10:15:04;;;;;;;2.70;1.55;;;20.30;99.90;;;;;;5016082;28;20044;-78
2021/08/10 10:17:39;;;;;;;3.80;1.80;;;20.50;99.90;;;;;;5080779;28;20044;-77
2021/08/10 10:20:31;;;;;;;4.43;1.98;;;20.80;99.90;;;;;;4996341;28;20037;-78
2021/08/10 10:22:59;;;;;;;4.93;2.22;;;21.00;99.90;;;;;;4993080;28;20053;-78
2021/08/10 10:25:26;;;;;;;3.75;1.55;;;21.00;99.90;;;;;;4990944;28;20075;-78
2021/08/10 10:27:55;;;;;;;4.22;1.83;;;21.00;99.90;;;;;;5020925;28;20515;-77
2021/08/10 10:30:22;;;;;;;4.53;1.65;;;21.00;99.90;;;;;;4991790;28;20045;-76
2021/08/10 10:32:49;;;;;;;4.35;2.10;;;20.90;99.90;;;;;;5023065;28;20048;-76
2021/08/10 10:35:18;;;;;;;3.65;1.10;;;20.80;99.90;;;;;;4979222;28;20049;-77
2021/08/10 10:37:50;;;;;;;5.28;3.97;;;20.70;99.90;;;;;;5004787;28;20133;-76
2021/08/10 10:40:19;;;;;;;3.15;2.03;;;20.60;99.90;;;;;;5041283;28;20033;-77
2021/08/10 10:42:47;;;;;;;2.85;1.38;;;20.50;99.90;;;;;;5038588;28;20044;-77
2021/08/10 10:45:41;;;;;;;2.47;1.00;;;20.40;99.90;;;;;;5021115;28;20056;-77
2021/08/10 10:48:26;;;;;;;2.80;1.30;;;20.60;99.90;;;;;;5036476;28;20044;-77
2021/08/10 10:51:23;;;;;;;4.80;1.25;;;21.20;99.90;;;;;;5006663;28;20562;-77
2021/08/10 10:53:50;;;;;;;3.22;1.33;;;21.60;99.90;;;;;;4975898;28;20041;-77
2021/08/10 10:56:25;;;;;;;3.20;1.13;;;21.90;99.90;;;;;;5040927;28;20041;-76
2021/08/10 10:58:54;;;;;;;3.85;1.42;;;22.20;99.90;;;;;;5037963;28;20028;-77
2021/08/10 11:01:30;;;;;;;4.78;1.52;;;22.60;99.90;;;;;;5025367;28;20059;-77
2021/08/10 11:04:03;;;;;;;3.63;1.40;;;23.00;99.90;;;;;;5020820;28;20050;-77
2021/08/10 11:06:31;;;;;;;4.53;1.10;;;23.40;99.90;;;;;;5007283;28;20033;-76
2021/08/10 11:08:59;;;;;;;4.00;1.90;;;23.60;99.20;;;;;;5024227;28;20051;-77
2021/08/10 11:11:48;;;;;;;2.95;1.13;;;23.60;98.40;;;;;;5035990;28;20044;-76
2021/08/10 11:14:36;;;;;;;4.07;1.67;;;23.80;98.30;;;;;;5049262;28;20071;-77
2021/08/10 11:17:10;;;;;;;3.58;1.80;;;23.80;97.40;;;;;;5069988;28;20439;-78
2021/08/10 11:19:39;;;;;;;7.15;1.88;;;23.60;97.30;;;;;;5089548;28;20031;-79
2021/08/10 11:22:17;;;;;;;4.32;1.65;;;23.80;97.10;;;;;;5065653;28;20082;-78
2021/08/10 11:24:51;;;;;;;3.85;1.30;;;24.10;94.40;;;;;;5085135;28;20039;-78
2021/08/10 11:27:41;;;;;;;4.93;1.63;;;24.20;93.80;;;;;;5084589;28;20035;-78
2021/08/10 11:30:10;;;;;;;2.55;1.30;;;24.20;92.90;;;;;;5048519;28;20044;-78
2021/08/10 11:32:39;;;;;;;4.75;2.00;;;24.30;93.40;;;;;;5052386;28;20064;-78
2021/08/10 11:35:39;;;;;;;3.85;1.27;;;24.40;92.80;;;;;;5083462;28;20769;-79
2021/08/10 11:38:21;;;;;;;3.00;1.20;;;24.40;92.30;;;;;;5086552;28;20047;-77
2021/08/10 11:41:02;;;;;;;3.22;1.70;;;24.20;92.20;;;;;;5053862;28;20048;-77
2021/08/10 11:43:44;;;;;;;2.92;1.15;;;24.20;92.00;;;;;;5066586;28;20051;-78
2021/08/10 11:46:19;;;;;;;4.18;1.77;;;24.10;92.30;;;;;;5066565;28;20036;-78
2021/08/10 11:48:46;;;;;;;4.50;1.50;;;24.30;92.20;;;;;;5066623;28;20040;-80
2021/08/10 11:51:20;;;;;;;3.90;1.67;;;24.70;91.40;;;;;;5081992;28;20063;-81
2021/08/10 11:53:52;;;;;;;6.13;1.73;;;24.80;91.30;;;;;;5068440;28;20043;-80
2021/08/10 11:56:32;;;;;;;4.50;1.90;;;24.70;91.10;;;;;;5083170;28;20036;-79
2021/08/10 11:59:00;;;;;;;3.25;1.13;;;24.60;91.30;;;;;;5050571;28;20052;-79
2021/08/10 12:01:28;;;;;;;4.95;1.67;;;24.50;91.60;;;;;;5072065;28;20044;-79
2021/08/10 12:04:13;;;;;;;5.28;2.30;;;24.60;91.90;;;;;;5058289;28;20801;-79
2021/08/10 12:06:41;;;;;;;4.30;2.28;;;25.30;91.20;;;;;;5074998;28;20476;-79
2021/08/10 12:09:10;;;;;;;6.53;4.07;;;25.60;89.50;;;;;;5065354;28;20040;-79
2021/08/10 12:11:37;;;;;;;5.55;2.97;;;25.90;89.30;;;;;;5055301;28;20047;-80
2021/08/10 12:14:19;;;;;;;4.25;1.70;;;26.10;88.50;;;;;;5040701;28;20078;-80
2021/08/10 12:17:04;;;;;;;4.47;1.58;;;26.20;87.10;;;;;;5054209;28;20043;-80
2021/08/10 12:19:38;;;;;;;4.20;1.48;;;26.20;87.10;;;;;;5070144;28;20455;-80
2021/08/10 12:22:07;;;;;;;3.33;1.50;;;26.30;86.60;;;;;;5049399;28;20037;-80
2021/08/10 12:24:38;;;;;;;3.90;1.20;;;26.70;86.90;;;;;;5069204;28;20044;-80
2021/08/10 12:27:08;;;;;;;5.28;1.40;;;27.60;83.40;;;;;;5074162;28;20046;-80
2021/08/10 12:29:43;;;;;;;5.57;1.60;;;28.00;82.40;;;;;;5074060;28;20047;-80
2021/08/10 12:32:22;;;;;;;4.35;2.13;;;28.10;80.20;;;;;;5050445;28;20051;-80
2021/08/10 12:34:49;;;;;;;5.25;3.08;;;27.80;78.80;;;;;;5054431;28;20055;-81
2021/08/10 12:37:15;;;;;;;5.95;2.00;;;28.10;78.80;;;;;;5049162;28;20040;-81
2021/08/10 12:39:45;;;;;;;6.10;1.48;;;28.40;76.60;;;;;;5066246;28;20052;-81
2021/08/10 12:42:12;;;;;;;3.80;1.55;;;29.00;75.70;;;;;;5048602;28;20036;-82
2021/08/10 12:44:40;;;;;;;4.45;2.38;;;29.80;72.30;;;;;;5038378;28;20049;-82
2021/08/10 12:47:09;;;;;;;5.97;2.20;;;30.40;71.80;;;;;;5050581;28;20044;-82
2021/08/10 12:49:42;;;;;;;6.97;2.95;;;30.80;68.80;;;;;;5041861;28;20915;-82
2021/08/10 12:52:12;;;;;;;3.92;1.65;;;31.50;67.90;;;;;;5070168;28;20042;-81
2021/08/10 12:54:51;;;;;;;4.47;1.83;;;31.80;66.00;;;;;;5068631;28;20063;-81
2021/08/10 12:57:24;;;;;;;3.78;1.30;;;32.00;64.10;;;;;;5066575;28;20795;-80
2021/08/10 12:59:55;;;;;;;3.30;1.40;;;32.00;62.20;;;;;;5069662;28;20567;-81
2021/08/10 13:02:31;;;;;;;3.67;1.48;;;32.20;61.10;;;;;;5066089;28;20048;-81
2021/08/10 13:04:58;;;;;;;5.70;1.45;;;32.50;58.80;;;;;;5068079;28;20032;-81
2021/08/10 13:07:25;;;;;;;3.78;1.55;;;32.40;58.70;;;;;;5038115;28;20118;-81